Time;durP1;ratioP1;P1;durP2;ratioP2;P2;SDS_P1;SDS_P2;PMS_P1;PMS_P2;Temp;Humidity;BMP_temperature;BMP_pressure;BME280_temperature;BME280_humidity;BME280_pressure;Samples;Min_cycle;Max_cycle;Signal;HPM_P1;HPM_P2
2021/06/11 00:01:03;;;;;;;7.50;6.90;;;;;;;18.61;56.21;97536.75;5070081;28;20225;-77
2021/06/11 00:03:28;;;;;;;7.53;6.93;;;;;;;18.76;55.93;97542.84;5034986;28;20045;-77
2021/06/11 00:05:54;;;;;;;7.45;6.85;;;;;;;18.69;56.00;97540.56;5033126;28;20426;-77
2021/06/11 00:08:20;;;;;;;7.70;7.00;;;;;;;18.70;56.23;97542.13;5043209;28;20028;-77
2021/06/11 00:10:46;;;;;;;7.78;7.07;;;;;;;18.65;56.44;97542.22;5071085;28;20055;-77
2021/06/11 00:13:11;;;;;;;8.10;7.30;;;;;;;18.56;57.00;97538.66;5047865;28;20033;-77
2021/06/11 00:15:37;;;;;;;7.72;6.97;;;;;;;18.55;57.07;97534.47;5071334;28;20020;-77
2021/06/11 00:18:03;;;;;;;7.88;7.03;;;;;;;18.52;56.81;97538.44;5054158;28;20051;-77
2021/06/11 00:20:28;;;;;;;7.50;6.80;;;;;;;18.55;56.71;97542.38;5044707;28;20456;-77
2021/06/11 00:22:53;;;;;;;6.97;6.38;;;;;;;18.47;56.54;97538.53;5070138;28;20505;-77
2021/06/11 00:25:23;;;;;;;7.70;7.03;;;;;;;18.43;56.38;97546.22;5041623;28;20021;-77
2021/06/11 00:27:52;;;;;;;7.43;6.82;;;;;;;18.54;56.23;97541.56;5047587;28;20041;-77
2021/06/11 00:30:19;;;;;;;7.18;6.53;;;;;;;18.46;55.77;97536.97;5039515;28;20037;-77
2021/06/11 00:32:47;;;;;;;6.50;5.95;;;;;;;18.55;55.69;97547.66;5041890;28;20048;-77
2021/06/11 00:35:14;;;;;;;7.75;7.05;;;;;;;18.57;55.34;97550.78;5044460;28;20127;-77
2021/06/11 00:37:39;;;;;;;6.47;5.70;;;;;;;18.58;55.11;97552.34;5038562;28;20079;-77
2021/06/11 00:40:07;;;;;;;5.88;5.38;;;;;;;18.52;54.75;97546.34;5033046;28;20567;-77
2021/06/11 00:42:33;;;;;;;6.32;5.72;;;;;;;18.54;54.99;97546.84;5052776;28;20041;-77
2021/06/11 00:44:59;;;;;;;6.38;5.80;;;;;;;18.51;54.93;97547.44;5064527;28;20040;-77
2021/06/11 00:47:25;;;;;;;6.20;5.70;;;;;;;18.43;55.37;97534.91;5054838;28;20067;-77
2021/06/11 00:49:50;;;;;;;6.50;6.00;;;;;;;18.41;55.80;97537.81;5070604;28;20774;-77
2021/06/11 00:52:16;;;;;;;6.38;5.80;;;;;;;18.37;56.08;97541.31;5030533;28;20033;-77
2021/06/11 00:54:41;;;;;;;6.70;6.20;;;;;;;18.29;56.83;97545.38;5070267;28;20387;-77
2021/06/11 00:57:07;;;;;;;6.43;5.82;;;;;;;18.28;56.54;97549.06;5037856;28;20061;-77
2021/06/11 00:59:33;;;;;;;7.15;6.22;;;;;;;18.15;57.01;97543.44;5023576;28;20033;-77
2021/06/11 01:01:58;;;;;;;7.47;6.60;;;;;;;18.15;57.46;97550.56;5063074;28;20484;-77
2021/06/11 01:04:24;;;;;;;6.30;5.70;;;;;;;18.06;56.44;97547.78;5045155;28;20036;-77
2021/06/11 01:06:50;;;;;;;6.30;5.80;;;;;;;17.98;56.75;97540.50;5049020;28;20090;-77
2021/06/11 01:09:15;;;;;;;7.38;6.68;;;;;;;17.93;56.88;97537.94;5034903;28;20045;-77
2021/06/11 01:11:43;;;;;;;6.88;6.30;;;;;;;17.89;56.91;97547.47;5072083;28;20035;-77
2021/06/11 01:14:09;;;;;;;6.40;5.90;;;;;;;17.91;56.83;97550.63;5055144;28;20024;-77
2021/06/11 01:16:36;;;;;;;5.90;5.38;;;;;;;17.90;56.28;97551.69;5038584;28;20169;-77
2021/06/11 01:19:02;;;;;;;6.35;5.75;;;;;;;17.86;56.77;97542.75;5038294;28;20416;-77
2021/06/11 01:21:30;;;;;;;7.07;5.95;;;;;;;17.72;57.07;97542.66;5071503;28;20108;-77
2021/06/11 01:24:13;;;;;;;6.15;5.55;;;;;;;17.67;57.05;97548.75;5071779;28;20387;-77
2021/06/11 01:26:40;;;;;;;6.28;5.65;;;;;;;17.73;57.16;97546.84;5055628;28;20066;-77
2021/06/11 01:29:13;;;;;;;6.45;5.47;;;;;;;17.54;57.38;97536.25;5071737;28;20115;-77
2021/06/11 01:31:49;;;;;;;6.07;5.57;;;;;;;17.42;56.79;97520.84;5071211;28;20036;-77
2021/06/11 01:34:32;;;;;;;6.18;5.68;;;;;;;17.52;56.98;97549.69;5049803;28;20044;-77
2021/06/11 01:37:21;;;;;;;5.97;5.40;;;;;;;17.52;57.01;97548.94;5043795;28;20071;-77
2021/06/11 01:39:52;;;;;;;6.07;5.57;;;;;;;17.55;57.11;97553.63;5038338;28;20507;-77
2021/06/11 01:42:20;;;;;;;6.38;5.78;;;;;;;17.68;56.27;97558.22;5071392;28;20090;-77
2021/06/11 01:44:48;;;;;;;6.40;5.80;;;;;;;17.65;56.39;97553.53;5055396;28;20493;-77
2021/06/11 01:47:14;;;;;;;5.70;5.30;;;;;;;17.72;56.28;97555.81;5038332;28;20028;-77
2021/06/11 01:49:44;;;;;;;6.45;5.78;;;;;;;17.59;56.29;97554.63;5048311;28;20028;-77
2021/06/11 01:52:11;;;;;;;6.20;5.70;;;;;;;17.64;56.73;97557.22;5070463;28;20613;-77
2021/06/11 01:54:37;;;;;;;6.68;6.07;;;;;;;17.59;56.95;97554.63;5035037;28;20090;-77
2021/06/11 01:57:04;;;;;;;6.25;5.75;;;;;;;17.62;57.07;97555.94;5037661;28;20032;-77
2021/06/11 01:59:31;;;;;;;6.53;5.93;;;;;;;17.63;57.00;97558.25;5037923;28;20028;-77
2021/06/11 02:01:58;;;;;;;6.75;6.25;;;;;;;17.56;56.88;97545.47;5037332;28;20548;-77
2021/06/11 02:04:25;;;;;;;6.22;5.63;;;;;;;17.60;57.07;97551.72;5053759;28;20040;-77
2021/06/11 02:06:51;;;;;;;6.85;6.22;;;;;;;17.57;57.82;97551.50;5070788;28;20043;-77
2021/06/11 02:09:18;;;;;;;6.38;5.78;;;;;;;17.52;57.85;97549.69;5034295;28;20032;-77
2021/06/11 02:11:47;;;;;;;6.95;6.35;;;;;;;17.51;57.83;97544.72;5030758;28;20021;-77
2021/06/11 02:14:17;;;;;;;7.10;6.50;;;;;;;17.49;58.05;97557.38;5050796;28;20406;-77
2021/06/11 02:16:44;;;;;;;6.88;6.32;;;;;;;17.38;57.73;97546.94;5045910;28;20032;-77
2021/06/11 02:19:10;;;;;;;6.82;6.13;;;;;;;17.37;57.61;97550.63;5037998;28;20097;-77
2021/06/11 02:21:37;;;;;;;6.15;5.65;;;;;;;17.30;57.79;97544.91;5063346;28;20040;-77
2021/06/11 02:24:06;;;;;;;6.68;6.07;;;;;;;17.21;57.54;97541.34;5043505;28;20033;-77
2021/06/11 02:26:32;;;;;;;6.80;6.20;;;;;;;17.28;57.84;97538.38;5034150;28;20031;-77
2021/06/11 02:28:58;;;;;;;7.13;5.85;;;;;;;17.26;57.67;97536.03;5056675;28;20058;-77
2021/06/11 02:31:24;;;;;;;7.05;6.35;;;;;;;17.32;57.91;97537.53;5053831;28;20024;-77
2021/06/11 02:33:50;;;;;;;6.25;5.65;;;;;;;17.34;57.83;97534.63;5070886;28;20613;-77
2021/06/11 02:36:16;;;;;;;6.82;6.22;;;;;;;17.31;58.15;97532.56;5066709;28;20383;-77
2021/06/11 02:38:42;;;;;;;6.70;6.10;;;;;;;17.29;58.10;97530.22;5070440;28;20036;-77
2021/06/11 02:41:13;;;;;;;7.20;6.50;;;;;;;17.20;58.44;97537.13;5037236;28;20437;-77
2021/06/11 02:43:42;;;;;;;6.68;5.90;;;;;;;17.28;58.02;97528.63;5041142;28;20036;-77
2021/06/11 02:46:15;;;;;;;6.60;6.00;;;;;;;17.16;57.73;97534.28;5037096;28;20499;-77
2021/06/11 02:48:46;;;;;;;6.72;6.13;;;;;;;17.20;57.89;97534.50;5053546;28;20063;-77
2021/06/11 02:51:31;;;;;;;6.20;5.53;;;;;;;17.19;58.36;97546.09;5053192;28;20036;-77
2021/06/11 02:53:59;;;;;;;8.95;6.20;;;;;;;17.18;58.34;97534.00;5031091;28;20435;-77
2021/06/11 02:56:31;;;;;;;6.22;5.63;;;;;;;17.11;58.60;97528.28;5052197;28;20025;-77
2021/06/11 02:59:07;;;;;;;7.25;6.20;;;;;;;17.03;58.63;97537.53;5070078;28;20033;-77
2021/06/11 03:01:37;;;;;;;7.05;6.45;;;;;;;17.04;58.71;97529.38;5025191;28;20499;-77
2021/06/11 03:04:04;;;;;;;6.68;6.15;;;;;;;17.12;59.20;97542.97;5036159;28;20387;-77
2021/06/11 03:06:31;;;;;;;7.47;6.43;;;;;;;17.13;59.19;97532.19;5069777;28;20084;-76
2021/06/11 03:08:57;;;;;;;6.60;6.07;;;;;;;17.22;59.50;97540.25;5036120;28;20082;-77
2021/06/11 03:11:30;;;;;;;7.10;6.32;;;;;;;17.17;59.61;97542.94;5052866;28;20082;-77
2021/06/11 03:13:57;;;;;;;6.85;6.30;;;;;;;17.25;59.59;97534.44;5030270;28;20116;-77
2021/06/11 03:16:27;;;;;;;8.90;6.63;;;;;;;17.22;60.00;97535.81;5035507;28;20028;-77
2021/06/11 03:19:03;;;;;;;7.50;6.85;;;;;;;17.18;60.50;97544.53;5048495;28;20054;-77
2021/06/11 03:21:35;;;;;;;7.85;7.15;;;;;;;17.25;60.28;97539.72;5052670;28;20028;-77
2021/06/11 03:24:04;;;;;;;7.22;6.63;;;;;;;17.29;59.99;97546.00;5052728;28;20058;-77
2021/06/11 03:26:44;;;;;;;7.55;6.60;;;;;;;17.29;59.68;97538.09;5053103;28;20067;-77
2021/06/11 03:29:11;;;;;;;7.65;6.95;;;;;;;17.37;59.88;97548.00;5053417;28;20033;-77
2021/06/11 03:31:40;;;;;;;7.35;6.75;;;;;;;17.30;59.71;97544.16;5069099;28;20032;-77
2021/06/11 03:34:10;;;;;;;8.23;7.43;;;;;;;17.31;59.72;97549.13;5061412;28;20111;-77
2021/06/11 03:36:41;;;;;;;8.02;7.32;;;;;;;17.34;59.76;97548.59;5034506;28;20475;-77
2021/06/11 03:39:09;;;;;;;7.60;7.00;;;;;;;17.50;59.25;97543.94;5069529;28;20032;-77
2021/06/11 03:41:35;;;;;;;7.07;6.47;;;;;;;17.55;59.16;97548.38;5052113;28;20036;-77
2021/06/11 03:44:07;;;;;;;7.18;6.47;;;;;;;17.47;59.08;97548.97;5052779;28;20067;-77
2021/06/11 03:46:38;;;;;;;6.93;6.32;;;;;;;17.44;58.90;97539.78;5035587;28;20037;-77
2021/06/11 03:49:04;;;;;;;7.07;6.43;;;;;;;17.53;58.69;97551.28;5052636;28;20489;-77
2021/06/11 03:51:29;;;;;;;7.07;6.38;;;;;;;17.62;58.57;97548.03;5052606;28;20025;-77
2021/06/11 03:53:55;;;;;;;6.82;6.22;;;;;;;17.58;58.88;97542.53;5066878;28;20040;-77
2021/06/11 03:56:22;;;;;;;7.25;6.55;;;;;;;17.51;58.99;97550.78;5069466;28;20051;-77
2021/06/11 03:58:49;;;;;;;6.72;6.15;;;;;;;17.46;58.93;97542.94;5069619;28;20111;-77
2021/06/11 04:01:22;;;;;;;8.27;7.28;;;;;;;17.32;59.51;97542.00;5052231;28;20456;-77
2021/06/11 04:03:47;;;;;;;7.65;6.95;;;;;;;17.53;59.33;97542.56;5035984;28;20025;-77
2021/06/11 04:06:19;;;;;;;7.15;6.55;;;;;;;17.40;59.21;97542.19;5068627;28;20119;-77
2021/06/11 04:08:45;;;;;;;7.65;6.95;;;;;;;17.53;58.94;97542.56;5051952;28;20035;-77
2021/06/11 04:11:41;;;;;;;7.10;6.50;;;;;;;17.41;59.00;97533.25;5035083;28;20387;-77
2021/06/11 04:14:08;;;;;;;7.18;6.30;;;;;;;17.63;59.33;97555.63;5059635;28;20131;-77
2021/06/11 04:16:45;;;;;;;6.70;6.10;;;;;;;17.55;59.52;97561.53;5068542;28;20021;-77
2021/06/11 04:19:24;;;;;;;7.05;6.35;;;;;;;17.56;59.32;97555.19;5052436;28;20067;-77
2021/06/11 04:21:53;;;;;;;7.13;6.43;;;;;;;17.70;59.05;97548.19;5068597;28;20108;-77
2021/06/11 04:24:26;;;;;;;6.70;6.10;;;;;;;17.76;58.78;97549.69;5068503;28;20108;-77
2021/06/11 04:26:51;;;;;;;7.20;6.50;;;;;;;17.95;58.90;97556.88;5045677;28;20028;-77
2021/06/11 04:29:17;;;;;;;6.75;6.15;;;;;;;18.00;58.96;97553.41;5048524;28;20525;-77
2021/06/11 04:31:43;;;;;;;6.97;6.38;;;;;;;18.08;58.68;97560.69;5054024;28;20617;-77
2021/06/11 04:34:14;;;;;;;7.25;6.57;;;;;;;17.98;58.69;97560.81;5047139;28;20025;-77
2021/06/11 04:36:40;;;;;;;7.10;6.50;;;;;;;18.18;58.43;97559.75;5038185;28;20479;-77
2021/06/11 04:39:09;;;;;;;7.40;6.78;;;;;;;18.25;58.24;97560.97;5055223;28;20031;-77
2021/06/11 04:41:35;;;;;;;6.20;5.70;;;;;;;18.30;57.98;97558.28;5055492;28;20033;-77
2021/06/11 04:44:03;;;;;;;7.43;6.82;;;;;;;18.28;58.73;97549.88;5043380;28;20025;-77
2021/06/11 04:46:28;;;;;;;7.15;6.45;;;;;;;18.41;58.43;97556.28;5072248;28;20040;-77
2021/06/11 04:48:54;;;;;;;6.97;6.32;;;;;;;18.49;58.95;97557.47;5069298;28;20371;-77
2021/06/11 04:51:20;;;;;;;6.97;6.38;;;;;;;18.57;58.87;97550.78;5038458;28;20086;-77
2021/06/11 04:53:46;;;;;;;6.60;6.10;;;;;;;18.71;58.89;97552.41;5071379;28;20032;-76
2021/06/11 04:56:17;;;;;;;7.45;6.80;;;;;;;18.73;58.04;97554.75;5065186;28;20020;-77
2021/06/11 04:58:43;;;;;;;6.38;5.88;;;;;;;19.04;56.73;97559.56;5055568;28;20028;-77
2021/06/11 05:01:09;;;;;;;6.95;6.35;;;;;;;19.00;56.76;97551.44;5072451;28;20436;-77
2021/06/11 05:03:35;;;;;;;6.80;6.25;;;;;;;19.16;56.65;97556.44;5065414;28;20120;-77
2021/06/11 05:06:01;;;;;;;6.25;5.78;;;;;;;19.19;56.18;97551.38;5030051;28;20119;-77
2021/06/11 05:08:27;;;;;;;7.80;7.13;;;;;;;19.28;55.08;97549.63;5071295;28;20028;-77
2021/06/11 05:10:53;;;;;;;6.45;5.90;;;;;;;19.30;54.83;97556.50;5054037;28;20074;-77
2021/06/11 05:13:18;;;;;;;6.97;6.47;;;;;;;19.38;54.29;97550.50;5037707;28;20544;-77
2021/06/11 05:15:44;;;;;;;6.50;6.00;;;;;;;19.44;54.04;97557.28;5030626;28;20024;-77
2021/06/11 05:18:09;;;;;;;6.57;5.90;;;;;;;19.51;53.75;97552.38;5071748;28;20040;-77
2021/06/11 05:20:37;;;;;;;6.53;5.93;;;;;;;19.60;52.97;97555.94;5064385;28;20728;-77
2021/06/11 05:23:03;;;;;;;6.43;5.90;;;;;;;19.68;53.25;97556.31;5071082;28;20032;-77
2021/06/11 05:25:28;;;;;;;6.78;6.18;;;;;;;19.79;53.30;97550.56;5071978;28;20102;-77
2021/06/11 05:27:54;;;;;;;5.78;5.32;;;;;;;19.89;53.33;97557.50;5055458;28;20383;-77
2021/06/11 05:30:19;;;;;;;6.15;5.75;;;;;;;19.94;52.89;97553.97;5030478;28;20021;-77
2021/06/11 05:32:46;;;;;;;5.47;5.07;;;;;;;20.07;52.75;97563.75;5050374;28;20033;-77
2021/06/11 05:35:11;;;;;;;6.38;5.72;;;;;;;20.17;53.02;97549.53;5068655;28;20032;-77
2021/06/11 05:37:37;;;;;;;5.72;5.30;;;;;;;20.34;52.73;97562.09;5034178;28;20043;-77
2021/06/11 05:40:03;;;;;;;8.02;7.22;;;;;;;20.48;52.58;97568.16;5058187;28;20032;-77
2021/06/11 05:42:28;;;;;;;6.40;5.90;;;;;;;20.61;52.71;97558.59;5054451;28;20040;-77
2021/06/11 05:44:54;;;;;;;7.38;6.53;;;;;;;20.77;52.87;97554.53;5054534;28;20036;-77
2021/06/11 05:47:19;;;;;;;7.20;6.45;;;;;;;20.92;53.03;97565.84;5054582;28;20058;-77
2021/06/11 05:49:44;;;;;;;7.22;6.63;;;;;;;21.18;53.11;97562.56;5071243;28;20472;-77
2021/06/11 05:52:10;;;;;;;7.28;6.68;;;;;;;21.37;52.67;97568.44;5070511;28;20028;-77
2021/06/11 05:54:35;;;;;;;7.55;6.85;;;;;;;21.47;52.66;97570.03;5068867;28;20110;-77
2021/06/11 05:57:01;;;;;;;7.15;6.53;;;;;;;21.63;51.93;97567.78;5070669;28;20111;-77
2021/06/11 05:59:26;;;;;;;7.97;6.45;;;;;;;21.85;50.88;97566.91;5037217;28;20040;-77
2021/06/11 06:01:51;;;;;;;6.53;5.93;;;;;;;21.98;50.09;97567.88;5070619;28;20106;-77
2021/06/11 06:04:19;;;;;;;6.15;5.65;;;;;;;21.99;49.79;97558.84;5062000;28;20048;-77
2021/06/11 06:06:45;;;;;;;6.10;5.60;;;;;;;22.41;49.37;97578.56;5067570;28;20486;-77
2021/06/11 06:09:10;;;;;;;7.05;6.38;;;;;;;22.61;48.97;97569.19;5053846;28;20123;-77
2021/06/11 06:11:35;;;;;;;6.10;5.63;;;;;;;23.00;47.64;97575.38;5046048;28;20029;-77
2021/06/11 06:14:01;;;;;;;6.30;5.80;;;;;;;23.09;47.08;97571.97;5071891;28;20101;-77
2021/06/11 06:16:26;;;;;;;6.07;5.47;;;;;;;23.40;47.10;97577.03;5042090;28;20108;-77
2021/06/11 06:18:51;;;;;;;6.07;5.47;;;;;;;23.70;45.58;97569.88;5032456;28;20020;-77
2021/06/11 06:21:18;;;;;;;5.80;5.28;;;;;;;24.00;44.78;97569.88;5043155;28;20102;-77
2021/06/11 06:23:44;;;;;;;6.10;5.60;;;;;;;24.11;45.01;97570.28;5030876;28;20063;-77
2021/06/11 06:26:09;;;;;;;5.82;5.35;;;;;;;24.36;44.49;97571.19;5052304;28;20056;-77
2021/06/11 06:28:34;;;;;;;5.65;5.15;;;;;;;24.52;44.51;97581.25;5065348;28;20036;-77
2021/06/11 06:31:01;;;;;;;5.57;5.18;;;;;;;24.55;43.87;97570.00;5021997;28;20120;-77
2021/06/11 06:33:26;;;;;;;5.70;5.18;;;;;;;24.72;43.25;97585.81;5023658;28;20027;-77
2021/06/11 06:35:52;;;;;;;5.25;4.80;;;;;;;24.77;42.59;97571.53;5055636;28;20028;-77
2021/06/11 06:38:17;;;;;;;5.10;4.65;;;;;;;25.10;41.68;97576.06;5047656;28;20029;-77
2021/06/11 06:40:46;;;;;;;4.90;4.45;;;;;;;25.47;41.54;97574.25;5064327;28;20036;-77
2021/06/11 06:43:12;;;;;;;4.72;4.32;;;;;;;25.87;40.76;97578.91;5062204;28;20033;-77
2021/06/11 06:45:38;;;;;;;4.43;4.05;;;;;;;26.07;40.76;97573.81;5060967;28;20024;-77
2021/06/11 06:48:04;;;;;;;4.18;3.78;;;;;;;26.22;39.79;97575.81;5071085;28;20033;-77
2021/06/11 06:50:29;;;;;;;4.22;3.92;;;;;;;26.45;39.51;97573.38;5027653;28;20101;-77
2021/06/11 06:52:55;;;;;;;6.20;3.97;;;;;;;26.28;39.40;97576.34;5055205;28;20032;-77
2021/06/11 06:55:21;;;;;;;4.20;3.90;;;;;;;26.43;39.18;97566.84;5050713;28;20035;-77
2021/06/11 06:57:46;;;;;;;4.40;3.88;;;;;;;26.35;38.74;97576.53;5053541;28;20517;-77
2021/06/11 07:00:12;;;;;;;4.20;3.80;;;;;;;26.73;38.41;97580.66;5069912;28;20161;-77
2021/06/11 07:02:37;;;;;;;3.58;3.28;;;;;;;26.61;38.54;97578.00;5069832;28;20067;-77
2021/06/11 07:05:04;;;;;;;4.13;3.78;;;;;;;26.63;38.36;97581.13;5050006;28;20093;-77
2021/06/11 07:07:29;;;;;;;3.80;3.50;;;;;;;26.70;38.26;97571.44;5066468;28;20033;-77
2021/06/11 07:09:55;;;;;;;3.70;3.40;;;;;;;27.05;37.65;97584.16;5046014;28;20143;-77
2021/06/11 07:12:20;;;;;;;4.03;3.30;;;;;;;27.55;36.22;97562.50;5064240;28;20032;-77
2021/06/11 07:14:46;;;;;;;3.40;3.10;;;;;;;27.65;37.15;97568.06;5066548;28;20044;-77
2021/06/11 07:17:14;;;;;;;3.75;3.45;;;;;;;27.88;37.09;97572.03;5064301;28;20090;-77
2021/06/11 07:19:40;;;;;;;3.47;3.25;;;;;;;28.15;36.06;97578.38;5036289;28;20025;-77
2021/06/11 07:22:07;;;;;;;3.35;3.15;;;;;;;28.29;35.89;97564.50;5062646;28;20035;-77
2021/06/11 07:24:33;;;;;;;3.92;2.97;;;;;;;28.71;35.53;97569.19;5049492;28;20039;-77
2021/06/11 07:26:59;;;;;;;3.28;2.97;;;;;;;28.64;35.12;97566.38;5067623;28;20063;-77
2021/06/11 07:29:24;;;;;;;3.33;3.00;;;;;;;28.54;36.03;97571.13;5030240;28;20028;-77
2021/06/11 07:31:50;;;;;;;3.75;3.38;;;;;;;28.33;35.15;97571.50;5052336;28;20654;-77
2021/06/11 07:34:15;;;;;;;3.30;2.97;;;;;;;28.59;34.92;97575.47;5044166;28;20542;-77
2021/06/11 07:36:40;;;;;;;3.60;3.30;;;;;;;28.97;33.96;97568.50;5065903;28;20086;-77
2021/06/11 07:39:06;;;;;;;3.28;3.08;;;;;;;28.80;34.68;97566.28;5052919;28;20028;-77
2021/06/11 07:41:31;;;;;;;3.30;3.00;;;;;;;29.17;34.47;97568.47;5048135;28;20028;-77
2021/06/11 07:43:57;;;;;;;4.03;3.63;;;;;;;29.59;33.18;97576.44;5068719;28;20044;-77
2021/06/11 07:46:23;;;;;;;2.88;2.67;;;;;;;29.83;33.65;97569.91;5045197;28;20032;-77
2021/06/11 07:48:51;;;;;;;3.47;3.17;;;;;;;30.10;33.40;97577.19;5053070;28;20020;-77
2021/06/11 07:51:17;;;;;;;3.90;3.60;;;;;;;30.28;32.55;97564.78;5031486;28;20033;-77
2021/06/11 07:53:42;;;;;;;16.55;4.55;;;;;;;30.49;33.20;97564.28;5066717;28;20048;-77
2021/06/11 07:56:09;;;;;;;3.25;3.05;;;;;;;30.24;32.78;97569.31;5045247;28;20020;-77
2021/06/11 07:58:34;;;;;;;4.63;3.33;;;;;;;30.32;32.67;97565.56;5063505;28;20037;-78
2021/06/11 08:00:59;;;;;;;4.07;3.58;;;;;;;30.56;32.46;97566.28;5047945;28;20135;-78
2021/06/11 08:03:25;;;;;;;3.40;3.20;;;;;;;31.04;31.93;97571.78;5051929;28;20431;-78
2021/06/11 08:05:51;;;;;;;4.78;3.75;;;;;;;30.48;31.38;97556.56;5033347;28;20029;-78
2021/06/11 08:08:17;;;;;;;3.03;2.83;;;;;;;30.81;32.61;97563.81;5069073;28;20072;-78
2021/06/11 08:10:42;;;;;;;3.47;3.17;;;;;;;30.79;31.59;97566.13;5068008;28;20048;-78
2021/06/11 08:13:08;;;;;;;3.85;3.25;;;;;;;30.92;30.82;97567.41;5034152;28;20037;-78
2021/06/11 08:15:34;;;;;;;3.30;3.00;;;;;;;31.14;29.56;97564.97;5047921;28;20029;-77
2021/06/11 08:18:00;;;;;;;3.53;3.20;;;;;;;31.16;30.60;97562.66;5053256;28;20033;-78
2021/06/11 08:20:25;;;;;;;5.82;3.25;;;;;;;31.08;30.99;97559.13;5048755;28;20382;-78
2021/06/11 08:22:55;;;;;;;3.78;3.40;;;;;;;31.47;30.19;97563.28;5039385;28;20399;-78
2021/06/11 08:25:24;;;;;;;3.63;3.42;;;;;;;31.25;29.86;97565.03;5058395;28;20604;-80
2021/06/11 08:27:50;;;;;;;3.70;3.40;;;;;;;31.25;30.26;97552.34;5039573;28;20029;-78
2021/06/11 08:30:16;;;;;;;4.55;3.40;;;;;;;31.50;30.22;97557.97;5056333;28;20047;-78
2021/06/11 08:32:41;;;;;;;3.78;3.17;;;;;;;31.79;29.61;97557.38;5072927;28;20036;-78
2021/06/11 08:35:08;;;;;;;3.30;3.10;;;;;;;31.59;28.97;97552.25;5053719;28;20039;-78
2021/06/11 08:37:33;;;;;;;3.70;3.40;;;;;;;31.97;29.78;97560.94;5067778;28;20040;-78
2021/06/11 08:40:02;;;;;;;3.58;3.30;;;;;;;31.90;29.03;97550.91;5045529;28;20028;-78
2021/06/11 08:42:29;;;;;;;4.03;3.70;;;;;;;31.58;29.06;97561.47;5065795;28;20032;-78
2021/06/11 08:45:04;;;;;;;3.92;3.63;;;;;;;31.12;29.75;97559.94;5047801;28;20087;-79
2021/06/11 08:47:30;;;;;;;;;;;;;;;31.24;31.18;97564.28;5063875;28;20023;-78
2021/06/11 08:49:59;;;;;;;3.60;3.30;;;;;;;32.40;29.02;97565.78;5053496;28;19931;-78
2021/06/11 08:52:30;;;;;;;3.92;3.63;;;;;;;32.42;28.22;97553.47;5049956;28;20029;-78
2021/06/11 08:54:57;;;;;;;4.00;3.63;;;;;;;32.83;27.87;97555.91;5055723;28;20032;-78
2021/06/11 08:57:25;;;;;;;4.00;3.80;;;;;;;33.17;28.54;97557.50;5045749;28;20105;-78
2021/06/11 08:59:52;;;;;;;3.63;3.33;;;;;;;32.93;27.64;97548.97;5072841;28;20082;-78
2021/06/11 09:02:20;;;;;;;4.10;3.80;;;;;;;32.65;28.02;97549.72;5038157;28;20033;-78
2021/06/11 09:04:53;;;;;;;3.90;3.65;;;;;;;32.99;27.93;97552.09;5057544;28;20045;-78
2021/06/11 09:07:34;;;;;;;4.10;3.80;;;;;;;33.19;27.73;97555.97;5037880;28;20033;-78
2021/06/11 09:10:06;;;;;;;4.20;3.85;;;;;;;33.04;26.75;97555.16;5049627;28;20091;-79
2021/06/11 09:12:41;;;;;;;4.85;4.45;;;;;;;32.90;28.28;97555.13;5038377;28;20430;-78
2021/06/11 09:15:09;;;;;;;3.67;3.38;;;;;;;32.98;27.29;97564.78;5026381;28;20032;-78
2021/06/11 09:17:49;;;;;;;4.25;3.95;;;;;;;33.16;27.22;97561.34;5047724;28;20040;-78
2021/06/11 09:20:18;;;;;;;5.38;4.22;;;;;;;33.83;24.62;97564.41;5055233;28;20035;-78
2021/06/11 09:22:51;;;;;;;4.68;4.28;;;;;;;34.02;23.70;97560.53;5059570;28;20040;-78
2021/06/11 09:25:35;;;;;;;4.70;4.40;;;;;;;33.46;24.54;97566.38;5054072;28;20032;-78
2021/06/11 09:28:05;;;;;;;4.85;4.45;;;;;;;33.70;24.65;97562.13;5032277;28;20064;-78
2021/06/11 09:30:51;;;;;;;4.15;3.85;;;;;;;33.03;28.12;97556.31;5071396;28;20130;-78
2021/06/11 09:33:21;;;;;;;5.38;4.32;;;;;;;33.48;27.03;97555.94;5048582;28;20033;-78
2021/06/11 09:35:50;;;;;;;4.20;3.90;;;;;;;33.22;27.89;97551.72;5064787;28;20036;-77
2021/06/11 09:38:28;;;;;;;4.63;4.28;;;;;;;33.84;24.36;97560.56;5055068;28;20033;-77
2021/06/11 09:40:57;;;;;;;4.07;3.75;;;;;;;33.84;26.02;97561.31;5038288;28;20032;-77
2021/06/11 09:43:28;;;;;;;3.80;3.60;;;;;;;34.03;25.49;97562.03;5049932;28;20101;-77
2021/06/11 09:46:09;;;;;;;5.30;3.92;;;;;;;33.81;27.26;97561.31;5033214;28;20013;-77
2021/06/11 09:48:41;;;;;;;4.35;4.05;;;;;;;33.54;27.99;97569.84;5048362;28;20048;-78
2021/06/11 09:51:24;;;;;;;4.20;3.92;;;;;;;33.30;26.08;97563.31;5037724;28;20464;-77
2021/06/11 09:53:51;;;;;;;4.05;3.75;;;;;;;32.56;27.30;97560.84;5054768;28;20025;-77
2021/06/11 09:56:29;;;;;;;3.97;3.78;;;;;;;32.44;27.33;97561.16;5051670;28;20016;-77
2021/06/11 09:58:58;;;;;;;4.07;3.83;;;;;;;33.04;27.02;97552.47;5060555;28;20025;-78
2021/06/11 10:01:27;;;;;;;4.75;4.28;;;;;;;33.76;26.88;97549.78;5056038;28;20386;-78
2021/06/11 10:03:58;;;;;;;4.43;4.05;;;;;;;34.25;24.46;97554.66;5032025;28;20032;-78
2021/06/11 10:06:23;;;;;;;4.47;4.10;;;;;;;34.57;25.05;97548.34;5018373;28;20040;-78
2021/06/11 10:08:51;;;;;;;4.43;4.03;;;;;;;34.22;24.69;97555.44;5053876;28;20036;-77
2021/06/11 10:11:21;;;;;;;4.30;3.90;;;;;;;33.78;25.67;97552.09;5054888;28;20387;-77
2021/06/11 10:13:47;;;;;;;4.10;3.80;;;;;;;32.83;26.98;97549.72;5053483;28;20745;-77
2021/06/11 10:16:14;;;;;;;4.60;4.30;;;;;;;32.45;27.11;97554.63;5062730;28;20169;-77
2021/06/11 10:18:40;;;;;;;4.28;3.97;;;;;;;32.25;27.37;97554.94;5037518;28;20060;-78
2021/06/11 10:21:07;;;;;;;4.10;3.80;;;;;;;31.79;27.61;97550.06;5052283;28;20766;-78
2021/06/11 10:23:36;;;;;;;3.10;2.85;;;;;;;31.46;27.13;97554.47;5054332;28;20032;-78
2021/06/11 10:26:03;;;;;;;4.05;3.75;;;;;;;31.26;27.94;97561.22;5069827;28;20028;-78
2021/06/11 10:28:42;;;;;;;3.90;3.60;;;;;;;31.12;29.30;97559.16;5053646;28;20024;-78
2021/06/11 10:31:10;;;;;;;3.80;3.50;;;;;;;31.05;28.68;97551.03;5069911;28;20043;-79
2021/06/11 10:34:04;;;;;;;4.15;3.85;;;;;;;31.84;28.97;97554.31;5070011;28;20102;-79
2021/06/11 10:36:37;;;;;;;4.37;3.97;;;;;;;32.75;26.57;97553.56;5046768;28;20123;-81
2021/06/11 10:39:09;;;;;;;3.97;3.67;;;;;;;33.21;26.34;97548.25;5043218;28;20819;-79
2021/06/11 10:42:08;;;;;;;4.38;4.07;;;;;;;33.03;26.13;97553.63;5061891;28;20098;-79
2021/06/11 10:44:40;;;;;;;4.18;3.88;;;;;;;32.73;27.06;97547.78;5049124;28;20379;-79
2021/06/11 10:47:18;;;;;;;3.70;3.42;;;;;;;33.19;26.52;97547.88;5060273;28;20728;-78
2021/06/11 10:49:57;;;;;;;4.00;3.70;;;;;;;33.22;27.03;97549.78;5069858;28;20116;-79
2021/06/11 10:52:46;;;;;;;4.72;4.35;;;;;;;32.93;27.17;97542.81;5066454;28;20067;-78
2021/06/11 10:55:15;;;;;;;4.68;4.13;;;;;;;33.73;25.64;97545.16;5036457;28;20127;-78
2021/06/11 10:58:01;;;;;;;3.13;2.92;;;;;;;33.88;24.23;97537.00;5058333;28;20036;-78
2021/06/11 11:00:26;;;;;;;3.53;3.17;;;;;;;34.09;24.51;97528.81;5055224;28;20047;-78
2021/06/11 11:02:54;;;;;;;3.00;2.90;;;;;;;34.15;24.66;97531.88;5068849;28;20024;-78
2021/06/11 11:05:30;;;;;;;3.72;3.30;;;;;;;34.05;24.68;97532.69;5043278;28;20399;-79
2021/06/11 11:07:59;;;;;;;3.50;3.20;;;;;;;34.21;24.09;97521.47;5035082;28;20035;-79
2021/06/11 11:10:43;;;;;;;2.65;2.53;;;;;;;33.98;23.01;97536.19;5063105;28;20673;-79
2021/06/11 11:13:09;;;;;;;3.55;3.25;;;;;;;33.16;24.88;97520.88;5062045;28;20123;-79
2021/06/11 11:15:45;;;;;;;3.55;3.35;;;;;;;33.33;25.53;97528.22;5062004;28;20135;-78
2021/06/11 11:18:13;;;;;;;3.30;3.10;;;;;;;33.50;25.23;97521.25;5065499;28;20036;-79
2021/06/11 11:20:41;;;;;;;6.75;3.90;;;;;;;33.06;25.02;97529.72;5069469;28;20086;-79
2021/06/11 11:23:09;;;;;;;3.38;3.17;;;;;;;32.64;25.47;97531.97;5033318;28;20464;-78
2021/06/11 11:25:35;;;;;;;3.03;2.83;;;;;;;32.21;26.78;97543.38;5030850;28;20367;-79
2021/06/11 11:28:02;;;;;;;3.70;3.40;;;;;;;31.88;26.80;97526.25;5029028;28;20300;-78
2021/06/11 11:30:29;;;;;;;4.15;3.38;;;;;;;31.74;27.51;97526.19;5049159;28;20032;-79
2021/06/11 11:32:56;;;;;;;3.85;3.65;;;;;;;31.50;28.86;97516.81;5067055;28;20540;-79
2021/06/11 11:35:27;;;;;;;4.40;4.10;;;;;;;31.67;28.12;97526.94;5044281;28;20067;-79
2021/06/11 11:37:55;;;;;;;3.90;3.50;;;;;;;31.83;27.19;97517.78;5034422;28;20115;-79
2021/06/11 11:40:25;;;;;;;3.72;3.53;;;;;;;31.87;27.07;97516.63;5060356;28;20028;-78